sensor_id;sensor_type;location;lat;lon;timestamp;P1;durP1;ratioP1;P2;durP2;ratioP2
17921;SDS011;9086;50.966;3.144;2022-12-05T00:00:47;34.33;;;20.97;;
17921;SDS011;9086;50.966;3.144;2022-12-05T00:03:13;38.70;;;20.93;;
17921;SDS011;9086;50.966;3.144;2022-12-05T00:05:39;33.63;;;20.80;;
17921;SDS011;9086;50.966;3.144;2022-12-05T00:08:05;34.47;;;21.37;;
17921;SDS011;9086;50.966;3.144;2022-12-05T00:10:34;36.97;;;20.73;;
17921;SDS011;9086;50.966;3.144;2022-12-05T00:13:00;36.27;;;22.07;;
17921;SDS011;9086;50.966;3.144;2022-12-05T00:15:26;35.53;;;21.43;;
17921;SDS011;9086;50.966;3.144;2022-12-05T00:17:52;35.90;;;22.23;;
17921;SDS011;9086;50.966;3.144;2022-12-05T00:20:18;37.90;;;22.37;;
17921;SDS011;9086;50.966;3.144;2022-12-05T00:22:45;38.93;;;22.23;;
17921;SDS011;9086;50.966;3.144;2022-12-05T00:25:12;34.97;;;22.00;;
17921;SDS011;9086;50.966;3.144;2022-12-05T00:27:38;33.37;;;20.53;;
17921;SDS011;9086;50.966;3.144;2022-12-05T00:30:04;34.10;;;21.30;;
17921;SDS011;9086;50.966;3.144;2022-12-05T00:32:31;39.83;;;22.43;;
17921;SDS011;9086;50.966;3.144;2022-12-05T00:34:57;36.50;;;22.40;;
17921;SDS011;9086;50.966;3.144;2022-12-05T00:37:23;34.47;;;21.83;;
17921;SDS011;9086;50.966;3.144;2022-12-05T00:39:49;37.40;;;22.63;;
17921;SDS011;9086;50.966;3.144;2022-12-05T00:42:15;34.67;;;22.10;;
17921;SDS011;9086;50.966;3.144;2022-12-05T00:44:41;36.07;;;22.93;;
17921;SDS011;9086;50.966;3.144;2022-12-05T00:47:07;37.33;;;24.03;;
17921;SDS011;9086;50.966;3.144;2022-12-05T00:49:33;39.23;;;22.53;;
17921;SDS011;9086;50.966;3.144;2022-12-05T00:51:59;38.63;;;23.60;;
17921;SDS011;9086;50.966;3.144;2022-12-05T00:54:25;36.70;;;21.37;;
17921;SDS011;9086;50.966;3.144;2022-12-05T00:56:51;39.80;;;23.60;;
17921;SDS011;9086;50.966;3.144;2022-12-05T00:59:20;42.73;;;24.43;;
17921;SDS011;9086;50.966;3.144;2022-12-05T01:01:46;37.10;;;23.03;;
17921;SDS011;9086;50.966;3.144;2022-12-05T01:04:14;38.30;;;23.10;;
17921;SDS011;9086;50.966;3.144;2022-12-05T01:06:40;39.07;;;24.83;;
17921;SDS011;9086;50.966;3.144;2022-12-05T01:09:07;43.80;;;23.40;;
17921;SDS011;9086;50.966;3.144;2022-12-05T01:11:33;37.27;;;23.07;;
17921;SDS011;9086;50.966;3.144;2022-12-05T01:13:59;41.40;;;24.30;;
17921;SDS011;9086;50.966;3.144;2022-12-05T01:16:30;36.70;;;22.37;;
17921;SDS011;9086;50.966;3.144;2022-12-05T01:18:57;39.50;;;23.37;;
17921;SDS011;9086;50.966;3.144;2022-12-05T01:21:24;42.03;;;24.63;;
17921;SDS011;9086;50.966;3.144;2022-12-05T01:23:50;38.90;;;23.40;;
17921;SDS011;9086;50.966;3.144;2022-12-05T01:26:17;39.77;;;22.37;;
17921;SDS011;9086;50.966;3.144;2022-12-05T01:28:43;35.43;;;22.00;;
17921;SDS011;9086;50.966;3.144;2022-12-05T01:31:29;36.97;;;22.13;;
17921;SDS011;9086;50.966;3.144;2022-12-05T01:33:56;41.97;;;22.67;;
17921;SDS011;9086;50.966;3.144;2022-12-05T01:36:22;38.97;;;23.50;;
17921;SDS011;9086;50.966;3.144;2022-12-05T01:38:49;43.27;;;23.90;;
17921;SDS011;9086;50.966;3.144;2022-12-05T01:41:16;39.20;;;24.03;;
17921;SDS011;9086;50.966;3.144;2022-12-05T01:46:37;38.70;;;23.50;;
17921;SDS011;9086;50.966;3.144;2022-12-05T01:49:11;37.63;;;22.93;;
17921;SDS011;9086;50.966;3.144;2022-12-05T01:51:39;39.87;;;21.93;;
17921;SDS011;9086;50.966;3.144;2022-12-05T01:54:06;39.90;;;24.67;;
17921;SDS011;9086;50.966;3.144;2022-12-05T01:56:32;38.57;;;22.40;;
17921;SDS011;9086;50.966;3.144;2022-12-05T01:58:59;40.20;;;22.50;;
17921;SDS011;9086;50.966;3.144;2022-12-05T02:01:26;40.37;;;23.53;;
17921;SDS011;9086;50.966;3.144;2022-12-05T02:03:54;36.20;;;23.43;;
17921;SDS011;9086;50.966;3.144;2022-12-05T02:06:20;42.00;;;23.70;;
17921;SDS011;9086;50.966;3.144;2022-12-05T02:08:47;35.50;;;22.13;;
17921;SDS011;9086;50.966;3.144;2022-12-05T02:11:14;37.77;;;22.07;;
17921;SDS011;9086;50.966;3.144;2022-12-05T02:26:20;38.80;;;22.53;;
17921;SDS011;9086;50.966;3.144;2022-12-05T02:31:36;37.83;;;21.40;;
17921;SDS011;9086;50.966;3.144;2022-12-05T02:34:04;39.60;;;22.77;;
17921;SDS011;9086;50.966;3.144;2022-12-05T02:44:19;38.77;;;21.70;;
17921;SDS011;9086;50.966;3.144;2022-12-05T02:46:46;33.27;;;20.33;;
17921;SDS011;9086;50.966;3.144;2022-12-05T02:49:14;38.10;;;22.63;;
17921;SDS011;9086;50.966;3.144;2022-12-05T02:51:42;38.37;;;21.77;;
17921;SDS011;9086;50.966;3.144;2022-12-05T02:54:09;39.10;;;24.00;;
17921;SDS011;9086;50.966;3.144;2022-12-05T02:56:37;36.17;;;21.17;;
17921;SDS011;9086;50.966;3.144;2022-12-05T02:59:03;34.77;;;20.83;;
17921;SDS011;9086;50.966;3.144;2022-12-05T03:01:29;33.50;;;22.40;;
17921;SDS011;9086;50.966;3.144;2022-12-05T03:03:57;35.53;;;22.53;;
17921;SDS011;9086;50.966;3.144;2022-12-05T03:06:28;34.43;;;20.87;;
17921;SDS011;9086;50.966;3.144;2022-12-05T03:11:21;38.03;;;21.40;;
17921;SDS011;9086;50.966;3.144;2022-12-05T03:13:49;35.77;;;22.20;;
17921;SDS011;9086;50.966;3.144;2022-12-05T03:16:20;30.90;;;21.17;;
17921;SDS011;9086;50.966;3.144;2022-12-05T03:18:48;34.90;;;23.33;;
17921;SDS011;9086;50.966;3.144;2022-12-05T03:21:24;33.70;;;20.93;;
17921;SDS011;9086;50.966;3.144;2022-12-05T03:23:53;33.77;;;20.93;;
17921;SDS011;9086;50.966;3.144;2022-12-05T03:26:39;33.37;;;21.80;;
17921;SDS011;9086;50.966;3.144;2022-12-05T03:34:31;31.30;;;20.80;;
17921;SDS011;9086;50.966;3.144;2022-12-05T03:37:01;35.17;;;21.20;;
17921;SDS011;9086;50.966;3.144;2022-12-05T03:39:31;35.83;;;22.00;;
17921;SDS011;9086;50.966;3.144;2022-12-05T03:42:14;32.77;;;19.60;;
17921;SDS011;9086;50.966;3.144;2022-12-05T03:44:43;31.20;;;19.50;;
17921;SDS011;9086;50.966;3.144;2022-12-05T03:47:14;33.80;;;20.70;;
17921;SDS011;9086;50.966;3.144;2022-12-05T03:49:43;31.03;;;20.57;;
17921;SDS011;9086;50.966;3.144;2022-12-05T03:52:18;30.37;;;19.40;;
17921;SDS011;9086;50.966;3.144;2022-12-05T03:54:46;30.40;;;19.87;;
17921;SDS011;9086;50.966;3.144;2022-12-05T03:57:19;32.43;;;19.67;;
17921;SDS011;9086;50.966;3.144;2022-12-05T03:59:49;29.40;;;19.17;;
17921;SDS011;9086;50.966;3.144;2022-12-05T04:02:23;33.50;;;19.70;;
17921;SDS011;9086;50.966;3.144;2022-12-05T04:04:55;32.20;;;20.33;;
17921;SDS011;9086;50.966;3.144;2022-12-05T04:07:23;27.73;;;18.37;;
17921;SDS011;9086;50.966;3.144;2022-12-05T04:09:51;33.73;;;20.67;;
17921;SDS011;9086;50.966;3.144;2022-12-05T04:12:21;30.40;;;19.83;;
17921;SDS011;9086;50.966;3.144;2022-12-05T04:14:52;27.67;;;18.20;;
17921;SDS011;9086;50.966;3.144;2022-12-05T04:19:52;28.63;;;19.30;;
17921;SDS011;9086;50.966;3.144;2022-12-05T04:22:38;31.07;;;18.47;;
17921;SDS011;9086;50.966;3.144;2022-12-05T04:25:06;30.57;;;18.67;;
17921;SDS011;9086;50.966;3.144;2022-12-05T04:30:20;23.50;;;16.37;;
17921;SDS011;9086;50.966;3.144;2022-12-05T04:35:23;29.67;;;18.50;;
17921;SDS011;9086;50.966;3.144;2022-12-05T04:37:51;32.43;;;18.67;;
17921;SDS011;9086;50.966;3.144;2022-12-05T04:40:19;30.00;;;18.43;;
17921;SDS011;9086;50.966;3.144;2022-12-05T04:42:47;26.10;;;17.03;;
17921;SDS011;9086;50.966;3.144;2022-12-05T04:45:15;29.07;;;17.47;;
17921;SDS011;9086;50.966;3.144;2022-12-05T04:47:43;25.00;;;17.60;;
17921;SDS011;9086;50.966;3.144;2022-12-05T04:50:11;27.30;;;18.17;;
17921;SDS011;9086;50.966;3.144;2022-12-05T04:52:39;27.57;;;17.33;;
17921;SDS011;9086;50.966;3.144;2022-12-05T04:55:09;27.13;;;17.97;;
17921;SDS011;9086;50.966;3.144;2022-12-05T04:57:51;29.37;;;16.87;;
17921;SDS011;9086;50.966;3.144;2022-12-05T05:00:18;28.03;;;17.03;;
17921;SDS011;9086;50.966;3.144;2022-12-05T05:02:55;27.87;;;16.73;;
17921;SDS011;9086;50.966;3.144;2022-12-05T05:05:23;24.53;;;17.03;;
17921;SDS011;9086;50.966;3.144;2022-12-05T05:07:51;26.43;;;17.13;;
17921;SDS011;9086;50.966;3.144;2022-12-05T05:10:22;29.43;;;17.93;;
17921;SDS011;9086;50.966;3.144;2022-12-05T05:12:50;26.40;;;17.23;;
17921;SDS011;9086;50.966;3.144;2022-12-05T05:15:16;29.53;;;17.47;;
17921;SDS011;9086;50.966;3.144;2022-12-05T05:17:42;24.90;;;16.57;;
17921;SDS011;9086;50.966;3.144;2022-12-05T05:20:08;24.53;;;17.07;;
17921;SDS011;9086;50.966;3.144;2022-12-05T05:22:51;29.03;;;18.10;;
17921;SDS011;9086;50.966;3.144;2022-12-05T05:25:17;28.10;;;18.47;;
17921;SDS011;9086;50.966;3.144;2022-12-05T05:27:48;26.73;;;18.30;;
17921;SDS011;9086;50.966;3.144;2022-12-05T05:30:14;30.83;;;17.93;;
17921;SDS011;9086;50.966;3.144;2022-12-05T05:32:40;27.97;;;16.93;;
17921;SDS011;9086;50.966;3.144;2022-12-05T05:35:07;30.33;;;18.40;;
17921;SDS011;9086;50.966;3.144;2022-12-05T05:37:33;29.63;;;18.37;;
17921;SDS011;9086;50.966;3.144;2022-12-05T05:39:59;29.50;;;17.37;;
17921;SDS011;9086;50.966;3.144;2022-12-05T05:42:25;25.80;;;18.03;;
17921;SDS011;9086;50.966;3.144;2022-12-05T05:44:51;27.73;;;17.83;;
17921;SDS011;9086;50.966;3.144;2022-12-05T05:47:17;25.83;;;17.90;;
17921;SDS011;9086;50.966;3.144;2022-12-05T05:49:43;27.73;;;17.63;;
17921;SDS011;9086;50.966;3.144;2022-12-05T05:52:09;25.93;;;18.23;;
17921;SDS011;9086;50.966;3.144;2022-12-05T05:54:35;25.70;;;17.60;;
17921;SDS011;9086;50.966;3.144;2022-12-05T05:57:01;28.13;;;18.40;;
17921;SDS011;9086;50.966;3.144;2022-12-05T05:59:27;29.13;;;18.37;;
17921;SDS011;9086;50.966;3.144;2022-12-05T06:01:53;25.33;;;17.40;;
17921;SDS011;9086;50.966;3.144;2022-12-05T06:04:19;30.30;;;17.83;;
17921;SDS011;9086;50.966;3.144;2022-12-05T06:06:45;27.40;;;18.37;;
17921;SDS011;9086;50.966;3.144;2022-12-05T06:09:11;27.47;;;17.83;;
17921;SDS011;9086;50.966;3.144;2022-12-05T06:11:37;28.43;;;19.40;;
17921;SDS011;9086;50.966;3.144;2022-12-05T06:14:03;30.20;;;19.17;;
17921;SDS011;9086;50.966;3.144;2022-12-05T06:16:29;29.83;;;19.03;;
17921;SDS011;9086;50.966;3.144;2022-12-05T06:18:56;31.43;;;19.23;;
17921;SDS011;9086;50.966;3.144;2022-12-05T06:21:23;32.33;;;19.60;;
17921;SDS011;9086;50.966;3.144;2022-12-05T06:23:49;32.13;;;19.27;;
17921;SDS011;9086;50.966;3.144;2022-12-05T06:26:16;31.10;;;18.43;;
17921;SDS011;9086;50.966;3.144;2022-12-05T06:28:43;27.47;;;18.47;;
17921;SDS011;9086;50.966;3.144;2022-12-05T06:31:13;32.50;;;19.57;;
17921;SDS011;9086;50.966;3.144;2022-12-05T06:33:41;32.03;;;19.90;;
17921;SDS011;9086;50.966;3.144;2022-12-05T06:36:08;30.63;;;19.30;;
17921;SDS011;9086;50.966;3.144;2022-12-05T06:38:35;31.77;;;20.70;;
17921;SDS011;9086;50.966;3.144;2022-12-05T06:41:06;27.70;;;18.37;;
17921;SDS011;9086;50.966;3.144;2022-12-05T06:43:32;30.77;;;19.87;;
17921;SDS011;9086;50.966;3.144;2022-12-05T06:45:58;31.53;;;19.37;;
17921;SDS011;9086;50.966;3.144;2022-12-05T06:48:24;28.30;;;19.73;;
17921;SDS011;9086;50.966;3.144;2022-12-05T06:50:51;31.33;;;20.03;;
17921;SDS011;9086;50.966;3.144;2022-12-05T06:53:18;32.33;;;20.70;;
17921;SDS011;9086;50.966;3.144;2022-12-05T06:55:53;31.57;;;20.00;;
17921;SDS011;9086;50.966;3.144;2022-12-05T06:58:19;31.77;;;19.43;;
17921;SDS011;9086;50.966;3.144;2022-12-05T07:00:45;31.33;;;20.57;;
17921;SDS011;9086;50.966;3.144;2022-12-05T07:03:30;30.93;;;18.67;;
17921;SDS011;9086;50.966;3.144;2022-12-05T07:05:59;31.13;;;19.13;;
17921;SDS011;9086;50.966;3.144;2022-12-05T07:08:25;35.17;;;20.70;;
17921;SDS011;9086;50.966;3.144;2022-12-05T07:10:51;30.80;;;19.70;;
17921;SDS011;9086;50.966;3.144;2022-12-05T07:13:17;30.87;;;20.07;;
17921;SDS011;9086;50.966;3.144;2022-12-05T07:15:46;35.20;;;22.03;;
17921;SDS011;9086;50.966;3.144;2022-12-05T07:18:13;35.83;;;21.53;;
17921;SDS011;9086;50.966;3.144;2022-12-05T07:20:40;30.87;;;19.63;;
17921;SDS011;9086;50.966;3.144;2022-12-05T07:23:06;33.43;;;20.80;;
17921;SDS011;9086;50.966;3.144;2022-12-05T07:25:32;36.57;;;22.20;;
17921;SDS011;9086;50.966;3.144;2022-12-05T07:27:58;34.83;;;21.23;;
17921;SDS011;9086;50.966;3.144;2022-12-05T07:30:24;33.30;;;20.80;;
17921;SDS011;9086;50.966;3.144;2022-12-05T07:32:50;34.27;;;21.77;;
17921;SDS011;9086;50.966;3.144;2022-12-05T07:35:16;34.00;;;22.23;;
17921;SDS011;9086;50.966;3.144;2022-12-05T07:37:42;32.57;;;22.17;;
17921;SDS011;9086;50.966;3.144;2022-12-05T07:40:08;35.17;;;23.10;;
17921;SDS011;9086;50.966;3.144;2022-12-05T07:42:35;30.67;;;21.37;;
17921;SDS011;9086;50.966;3.144;2022-12-05T07:45:01;36.77;;;23.37;;
17921;SDS011;9086;50.966;3.144;2022-12-05T07:47:28;34.63;;;21.77;;
17921;SDS011;9086;50.966;3.144;2022-12-05T07:49:54;31.83;;;21.03;;
17921;SDS011;9086;50.966;3.144;2022-12-05T07:52:20;34.00;;;22.77;;
17921;SDS011;9086;50.966;3.144;2022-12-05T07:54:46;33.07;;;21.33;;
17921;SDS011;9086;50.966;3.144;2022-12-05T07:57:12;36.07;;;21.43;;
17921;SDS011;9086;50.966;3.144;2022-12-05T07:59:38;35.10;;;22.67;;
17921;SDS011;9086;50.966;3.144;2022-12-05T08:02:05;34.93;;;21.60;;
17921;SDS011;9086;50.966;3.144;2022-12-05T08:04:31;38.03;;;22.77;;
17921;SDS011;9086;50.966;3.144;2022-12-05T08:06:57;35.60;;;22.20;;
17921;SDS011;9086;50.966;3.144;2022-12-05T08:09:23;39.03;;;22.70;;
17921;SDS011;9086;50.966;3.144;2022-12-05T08:11:49;39.63;;;22.83;;
17921;SDS011;9086;50.966;3.144;2022-12-05T08:14:15;37.63;;;22.70;;
17921;SDS011;9086;50.966;3.144;2022-12-05T08:16:41;41.20;;;24.17;;
17921;SDS011;9086;50.966;3.144;2022-12-05T08:19:09;38.93;;;24.17;;
17921;SDS011;9086;50.966;3.144;2022-12-05T08:21:36;37.33;;;23.30;;
17921;SDS011;9086;50.966;3.144;2022-12-05T08:24:03;42.67;;;24.73;;
17921;SDS011;9086;50.966;3.144;2022-12-05T08:26:30;44.40;;;25.87;;
17921;SDS011;9086;50.966;3.144;2022-12-05T08:28:57;37.40;;;23.50;;
17921;SDS011;9086;50.966;3.144;2022-12-05T08:31:24;43.13;;;24.77;;
17921;SDS011;9086;50.966;3.144;2022-12-05T08:33:51;44.70;;;25.30;;
17921;SDS011;9086;50.966;3.144;2022-12-05T08:36:18;40.97;;;26.90;;
17921;SDS011;9086;50.966;3.144;2022-12-05T08:38:44;43.87;;;25.83;;
17921;SDS011;9086;50.966;3.144;2022-12-05T08:41:12;46.33;;;26.30;;
17921;SDS011;9086;50.966;3.144;2022-12-05T08:43:38;46.30;;;25.63;;
17921;SDS011;9086;50.966;3.144;2022-12-05T08:46:04;42.37;;;24.23;;
17921;SDS011;9086;50.966;3.144;2022-12-05T08:48:34;41.83;;;24.37;;
17921;SDS011;9086;50.966;3.144;2022-12-05T08:51:04;44.23;;;24.70;;
17921;SDS011;9086;50.966;3.144;2022-12-05T08:53:30;47.20;;;27.03;;
17921;SDS011;9086;50.966;3.144;2022-12-05T08:56:00;41.43;;;24.87;;
17921;SDS011;9086;50.966;3.144;2022-12-05T08:58:27;40.37;;;27.10;;
17921;SDS011;9086;50.966;3.144;2022-12-05T09:00:53;39.23;;;23.43;;
17921;SDS011;9086;50.966;3.144;2022-12-05T09:03:19;44.10;;;25.77;;
17921;SDS011;9086;50.966;3.144;2022-12-05T09:05:45;46.90;;;25.33;;
17921;SDS011;9086;50.966;3.144;2022-12-05T09:08:11;46.07;;;27.00;;
17921;SDS011;9086;50.966;3.144;2022-12-05T09:10:37;44.13;;;26.23;;
17921;SDS011;9086;50.966;3.144;2022-12-05T09:13:03;43.17;;;25.17;;
17921;SDS011;9086;50.966;3.144;2022-12-05T09:15:29;40.90;;;25.33;;
17921;SDS011;9086;50.966;3.144;2022-12-05T09:17:55;45.17;;;26.13;;
17921;SDS011;9086;50.966;3.144;2022-12-05T09:20:21;44.70;;;26.10;;
17921;SDS011;9086;50.966;3.144;2022-12-05T09:22:47;42.20;;;24.67;;
17921;SDS011;9086;50.966;3.144;2022-12-05T09:25:13;48.20;;;27.07;;
17921;SDS011;9086;50.966;3.144;2022-12-05T09:27:39;43.23;;;26.47;;
17921;SDS011;9086;50.966;3.144;2022-12-05T09:30:05;41.27;;;25.17;;
17921;SDS011;9086;50.966;3.144;2022-12-05T09:32:31;46.37;;;26.37;;
17921;SDS011;9086;50.966;3.144;2022-12-05T09:34:58;43.33;;;27.93;;
17921;SDS011;9086;50.966;3.144;2022-12-05T09:37:24;46.83;;;27.73;;
17921;SDS011;9086;50.966;3.144;2022-12-05T09:39:50;41.80;;;26.57;;
17921;SDS011;9086;50.966;3.144;2022-12-05T09:44:50;44.30;;;26.57;;
17921;SDS011;9086;50.966;3.144;2022-12-05T09:47:35;43.60;;;25.77;;
17921;SDS011;9086;50.966;3.144;2022-12-05T09:52:40;45.47;;;25.97;;
17921;SDS011;9086;50.966;3.144;2022-12-05T09:55:10;52.30;;;27.07;;
17921;SDS011;9086;50.966;3.144;2022-12-05T09:57:39;46.93;;;26.70;;
17921;SDS011;9086;50.966;3.144;2022-12-05T10:00:10;45.60;;;28.63;;
17921;SDS011;9086;50.966;3.144;2022-12-05T10:05:14;49.50;;;27.13;;
17921;SDS011;9086;50.966;3.144;2022-12-05T10:17:58;42.10;;;26.60;;
17921;SDS011;9086;50.966;3.144;2022-12-05T10:20:35;42.20;;;25.40;;
17921;SDS011;9086;50.966;3.144;2022-12-05T10:23:04;39.70;;;26.20;;
17921;SDS011;9086;50.966;3.144;2022-12-05T10:25:31;41.80;;;25.73;;
17921;SDS011;9086;50.966;3.144;2022-12-05T10:27:59;45.93;;;24.77;;
17921;SDS011;9086;50.966;3.144;2022-12-05T10:30:29;43.27;;;26.17;;
17921;SDS011;9086;50.966;3.144;2022-12-05T10:33:00;40.50;;;24.73;;
17921;SDS011;9086;50.966;3.144;2022-12-05T10:35:33;43.60;;;26.60;;
17921;SDS011;9086;50.966;3.144;2022-12-05T10:38:04;42.20;;;27.20;;
17921;SDS011;9086;50.966;3.144;2022-12-05T10:40:37;42.63;;;26.37;;
17921;SDS011;9086;50.966;3.144;2022-12-05T10:43:05;40.23;;;28.00;;
17921;SDS011;9086;50.966;3.144;2022-12-05T10:45:32;44.67;;;26.57;;
17921;SDS011;9086;50.966;3.144;2022-12-05T10:48:01;49.00;;;26.93;;
17921;SDS011;9086;50.966;3.144;2022-12-05T10:50:31;42.50;;;26.23;;
17921;SDS011;9086;50.966;3.144;2022-12-05T10:52:59;41.73;;;27.00;;
17921;SDS011;9086;50.966;3.144;2022-12-05T10:55:32;40.50;;;27.07;;
17921;SDS011;9086;50.966;3.144;2022-12-05T10:58:15;43.83;;;25.70;;
17921;SDS011;9086;50.966;3.144;2022-12-05T11:00:47;42.47;;;26.60;;
17921;SDS011;9086;50.966;3.144;2022-12-05T11:03:34;44.63;;;25.83;;
17921;SDS011;9086;50.966;3.144;2022-12-05T11:06:02;46.63;;;26.80;;
17921;SDS011;9086;50.966;3.144;2022-12-05T11:08:39;41.53;;;24.80;;
17921;SDS011;9086;50.966;3.144;2022-12-05T11:11:05;45.90;;;28.13;;
17921;SDS011;9086;50.966;3.144;2022-12-05T11:13:33;43.77;;;28.07;;
17921;SDS011;9086;50.966;3.144;2022-12-05T11:15:59;38.53;;;25.63;;
17921;SDS011;9086;50.966;3.144;2022-12-05T11:18:27;39.70;;;27.60;;
17921;SDS011;9086;50.966;3.144;2022-12-05T11:20:53;39.40;;;25.57;;
17921;SDS011;9086;50.966;3.144;2022-12-05T11:23:27;41.53;;;26.97;;
17921;SDS011;9086;50.966;3.144;2022-12-05T11:25:56;37.97;;;26.43;;
17921;SDS011;9086;50.966;3.144;2022-12-05T11:28:26;36.20;;;25.97;;
17921;SDS011;9086;50.966;3.144;2022-12-05T11:33:21;46.77;;;28.50;;
17921;SDS011;9086;50.966;3.144;2022-12-05T11:35:48;40.87;;;25.57;;
17921;SDS011;9086;50.966;3.144;2022-12-05T11:38:16;40.80;;;26.43;;
17921;SDS011;9086;50.966;3.144;2022-12-05T11:40:46;42.77;;;25.93;;
17921;SDS011;9086;50.966;3.144;2022-12-05T11:43:37;37.90;;;25.47;;
17921;SDS011;9086;50.966;3.144;2022-12-05T11:48:48;43.63;;;25.20;;
17921;SDS011;9086;50.966;3.144;2022-12-05T11:51:23;38.20;;;24.40;;
17921;SDS011;9086;50.966;3.144;2022-12-05T12:04:16;40.00;;;23.70;;
17921;SDS011;9086;50.966;3.144;2022-12-05T12:06:56;41.67;;;24.77;;
17921;SDS011;9086;50.966;3.144;2022-12-05T12:09:32;39.83;;;24.87;;
17921;SDS011;9086;50.966;3.144;2022-12-05T12:12:04;37.17;;;23.10;;
17921;SDS011;9086;50.966;3.144;2022-12-05T12:14:40;35.43;;;24.37;;
17921;SDS011;9086;50.966;3.144;2022-12-05T12:20:00;36.37;;;22.57;;
17921;SDS011;9086;50.966;3.144;2022-12-05T12:25:23;37.00;;;23.10;;
17921;SDS011;9086;50.966;3.144;2022-12-05T12:33:07;33.93;;;23.83;;
17921;SDS011;9086;50.966;3.144;2022-12-05T12:40:39;34.30;;;23.00;;
17921;SDS011;9086;50.966;3.144;2022-12-05T12:45:42;33.67;;;23.43;;
17921;SDS011;9086;50.966;3.144;2022-12-05T12:50:40;32.70;;;23.07;;
17921;SDS011;9086;50.966;3.144;2022-12-05T12:55:56;31.87;;;20.73;;
17921;SDS011;9086;50.966;3.144;2022-12-05T13:01:02;29.90;;;21.20;;
17921;SDS011;9086;50.966;3.144;2022-12-05T13:03:31;27.53;;;19.57;;
17921;SDS011;9086;50.966;3.144;2022-12-05T13:06:05;26.90;;;19.33;;
17921;SDS011;9086;50.966;3.144;2022-12-05T13:10:58;29.23;;;20.53;;
17921;SDS011;9086;50.966;3.144;2022-12-05T13:13:36;31.20;;;19.77;;
17921;SDS011;9086;50.966;3.144;2022-12-05T13:16:04;28.47;;;19.67;;
17921;SDS011;9086;50.966;3.144;2022-12-05T13:18:32;31.87;;;20.33;;
17921;SDS011;9086;50.966;3.144;2022-12-05T13:20:59;30.73;;;21.00;;
17921;SDS011;9086;50.966;3.144;2022-12-05T13:23:30;28.83;;;21.13;;
17921;SDS011;9086;50.966;3.144;2022-12-05T13:25:57;27.63;;;20.70;;
17921;SDS011;9086;50.966;3.144;2022-12-05T13:28:25;31.43;;;22.23;;
17921;SDS011;9086;50.966;3.144;2022-12-05T13:30:52;34.73;;;22.53;;
17921;SDS011;9086;50.966;3.144;2022-12-05T13:33:26;28.20;;;21.63;;
17921;SDS011;9086;50.966;3.144;2022-12-05T13:35:56;28.90;;;20.77;;
17921;SDS011;9086;50.966;3.144;2022-12-05T13:38:46;29.10;;;20.73;;
17921;SDS011;9086;50.966;3.144;2022-12-05T13:41:50;29.67;;;20.80;;
17921;SDS011;9086;50.966;3.144;2022-12-05T13:47:02;28.30;;;20.40;;
17921;SDS011;9086;50.966;3.144;2022-12-05T13:49:42;32.10;;;22.30;;
17921;SDS011;9086;50.966;3.144;2022-12-05T13:52:14;33.13;;;22.10;;
17921;SDS011;9086;50.966;3.144;2022-12-05T13:54:44;30.20;;;22.37;;
17921;SDS011;9086;50.966;3.144;2022-12-05T14:10:13;29.33;;;22.73;;
17921;SDS011;9086;50.966;3.144;2022-12-05T14:12:56;29.10;;;22.07;;
17921;SDS011;9086;50.966;3.144;2022-12-05T14:17:50;35.33;;;23.40;;
17921;SDS011;9086;50.966;3.144;2022-12-05T14:28:32;30.87;;;22.60;;
17921;SDS011;9086;50.966;3.144;2022-12-05T14:33:27;27.57;;;20.97;;
17921;SDS011;9086;50.966;3.144;2022-12-05T14:35:53;31.73;;;23.37;;
17921;SDS011;9086;50.966;3.144;2022-12-05T14:38:26;29.83;;;20.90;;
17921;SDS011;9086;50.966;3.144;2022-12-05T14:40:53;27.20;;;21.23;;
17921;SDS011;9086;50.966;3.144;2022-12-05T14:43:30;33.43;;;22.67;;
17921;SDS011;9086;50.966;3.144;2022-12-05T14:46:00;27.70;;;20.77;;
17921;SDS011;9086;50.966;3.144;2022-12-05T14:50:54;28.93;;;21.97;;
17921;SDS011;9086;50.966;3.144;2022-12-05T14:55:54;26.20;;;22.20;;
17921;SDS011;9086;50.966;3.144;2022-12-05T15:01:17;30.40;;;20.03;;
17921;SDS011;9086;50.966;3.144;2022-12-05T15:06:25;28.60;;;21.33;;
17921;SDS011;9086;50.966;3.144;2022-12-05T15:08:52;26.87;;;21.80;;
17921;SDS011;9086;50.966;3.144;2022-12-05T15:11:21;28.93;;;21.87;;
17921;SDS011;9086;50.966;3.144;2022-12-05T15:13:59;32.50;;;22.47;;
17921;SDS011;9086;50.966;3.144;2022-12-05T15:16:26;27.70;;;22.03;;
17921;SDS011;9086;50.966;3.144;2022-12-05T15:18:56;31.93;;;21.87;;
17921;SDS011;9086;50.966;3.144;2022-12-05T15:23:59;29.37;;;22.50;;
17921;SDS011;9086;50.966;3.144;2022-12-05T15:31:25;28.70;;;21.87;;
17921;SDS011;9086;50.966;3.144;2022-12-05T15:33:52;30.10;;;24.20;;
17921;SDS011;9086;50.966;3.144;2022-12-05T15:36:20;27.50;;;19.97;;
17921;SDS011;9086;50.966;3.144;2022-12-05T15:38:49;27.17;;;20.70;;
17921;SDS011;9086;50.966;3.144;2022-12-05T15:41:15;28.73;;;22.83;;
17921;SDS011;9086;50.966;3.144;2022-12-05T15:43:42;28.73;;;21.13;;
17921;SDS011;9086;50.966;3.144;2022-12-05T15:46:19;29.53;;;22.53;;
17921;SDS011;9086;50.966;3.144;2022-12-05T15:48:52;28.33;;;20.57;;
17921;SDS011;9086;50.966;3.144;2022-12-05T15:51:20;26.27;;;19.90;;
17921;SDS011;9086;50.966;3.144;2022-12-05T15:53:48;28.23;;;21.27;;
17921;SDS011;9086;50.966;3.144;2022-12-05T15:58:49;28.27;;;20.93;;
17921;SDS011;9086;50.966;3.144;2022-12-05T16:01:20;27.53;;;19.60;;
17921;SDS011;9086;50.966;3.144;2022-12-05T16:08:45;26.63;;;20.63;;
17921;SDS011;9086;50.966;3.144;2022-12-05T16:11:12;27.97;;;22.67;;
17921;SDS011;9086;50.966;3.144;2022-12-05T16:13:57;26.33;;;22.43;;
17921;SDS011;9086;50.966;3.144;2022-12-05T16:16:27;27.83;;;20.40;;
17921;SDS011;9086;50.966;3.144;2022-12-05T16:18:55;29.77;;;23.60;;
17921;SDS011;9086;50.966;3.144;2022-12-05T16:21:37;25.17;;;21.53;;
17921;SDS011;9086;50.966;3.144;2022-12-05T16:26:34;26.47;;;20.20;;
17921;SDS011;9086;50.966;3.144;2022-12-05T16:29:01;26.67;;;19.67;;
17921;SDS011;9086;50.966;3.144;2022-12-05T16:31:28;26.57;;;20.63;;
17921;SDS011;9086;50.966;3.144;2022-12-05T16:34:07;26.73;;;21.33;;
17921;SDS011;9086;50.966;3.144;2022-12-05T16:36:44;25.27;;;19.63;;
17921;SDS011;9086;50.966;3.144;2022-12-05T16:39:13;24.83;;;20.17;;
17921;SDS011;9086;50.966;3.144;2022-12-05T16:41:40;31.50;;;23.47;;
17921;SDS011;9086;50.966;3.144;2022-12-05T16:46:50;30.73;;;20.33;;
17921;SDS011;9086;50.966;3.144;2022-12-05T16:51:59;34.03;;;24.47;;
17921;SDS011;9086;50.966;3.144;2022-12-05T16:54:26;28.67;;;23.33;;
17921;SDS011;9086;50.966;3.144;2022-12-05T16:56:52;31.57;;;25.70;;
17921;SDS011;9086;50.966;3.144;2022-12-05T16:59:39;33.87;;;25.67;;
17921;SDS011;9086;50.966;3.144;2022-12-05T17:02:10;44.17;;;37.90;;
17921;SDS011;9086;50.966;3.144;2022-12-05T17:04:36;37.63;;;30.30;;
17921;SDS011;9086;50.966;3.144;2022-12-05T17:07:03;35.57;;;28.83;;
17921;SDS011;9086;50.966;3.144;2022-12-05T17:09:29;37.13;;;28.57;;
17921;SDS011;9086;50.966;3.144;2022-12-05T17:11:58;34.03;;;26.40;;
17921;SDS011;9086;50.966;3.144;2022-12-05T17:14:26;32.67;;;25.40;;
17921;SDS011;9086;50.966;3.144;2022-12-05T17:16:52;28.03;;;23.37;;
17921;SDS011;9086;50.966;3.144;2022-12-05T17:19:18;27.70;;;23.00;;
17921;SDS011;9086;50.966;3.144;2022-12-05T17:21:44;29.70;;;22.27;;
17921;SDS011;9086;50.966;3.144;2022-12-05T17:24:16;25.97;;;21.33;;
17921;SDS011;9086;50.966;3.144;2022-12-05T17:26:43;28.30;;;22.20;;
17921;SDS011;9086;50.966;3.144;2022-12-05T17:29:10;26.37;;;21.93;;